sensor_id;sensor_type;location;lat;lon;timestamp;P1;durP1;ratioP1;P2;durP2;ratioP2
36931;SDS011;22847;42.654;23.370;2024-03-08T00:00:23;15.43;;;8.77;;
36931;SDS011;22847;42.654;23.370;2024-03-08T00:02:48;14.80;;;8.48;;
36931;SDS011;22847;42.654;23.370;2024-03-08T00:05:15;17.25;;;8.63;;
36931;SDS011;22847;42.654;23.370;2024-03-08T00:07:41;15.65;;;8.57;;
36931;SDS011;22847;42.654;23.370;2024-03-08T00:10:09;12.82;;;7.78;;
36931;SDS011;22847;42.654;23.370;2024-03-08T00:12:43;14.38;;;8.35;;
36931;SDS011;22847;42.654;23.370;2024-03-08T00:15:10;10.05;;;6.07;;
36931;SDS011;22847;42.654;23.370;2024-03-08T00:17:39;14.50;;;8.13;;
36931;SDS011;22847;42.654;23.370;2024-03-08T00:20:08;11.80;;;6.85;;
36931;SDS011;22847;42.654;23.370;2024-03-08T00:22:34;10.65;;;6.55;;
36931;SDS011;22847;42.654;23.370;2024-03-08T00:25:01;11.93;;;6.72;;
36931;SDS011;22847;42.654;23.370;2024-03-08T00:27:27;13.70;;;7.20;;
36931;SDS011;22847;42.654;23.370;2024-03-08T00:29:59;12.18;;;7.20;;
36931;SDS011;22847;42.654;23.370;2024-03-08T00:32:25;14.63;;;7.80;;
36931;SDS011;22847;42.654;23.370;2024-03-08T00:34:53;12.45;;;7.43;;
36931;SDS011;22847;42.654;23.370;2024-03-08T00:37:22;14.73;;;7.57;;
36931;SDS011;22847;42.654;23.370;2024-03-08T00:39:53;14.05;;;7.28;;
36931;SDS011;22847;42.654;23.370;2024-03-08T00:42:19;12.45;;;7.15;;
36931;SDS011;22847;42.654;23.370;2024-03-08T00:44:45;14.18;;;7.63;;
36931;SDS011;22847;42.654;23.370;2024-03-08T00:47:11;14.82;;;8.48;;
36931;SDS011;22847;42.654;23.370;2024-03-08T00:49:37;15.38;;;8.00;;
36931;SDS011;22847;42.654;23.370;2024-03-08T00:52:06;14.30;;;7.53;;
36931;SDS011;22847;42.654;23.370;2024-03-08T00:54:35;14.73;;;7.65;;
36931;SDS011;22847;42.654;23.370;2024-03-08T00:57:01;13.23;;;6.78;;
36931;SDS011;22847;42.654;23.370;2024-03-08T00:59:28;9.43;;;6.63;;
36931;SDS011;22847;42.654;23.370;2024-03-08T01:01:54;15.55;;;7.15;;
36931;SDS011;22847;42.654;23.370;2024-03-08T01:04:19;12.48;;;6.32;;
36931;SDS011;22847;42.654;23.370;2024-03-08T01:06:46;11.30;;;6.18;;
36931;SDS011;22847;42.654;23.370;2024-03-08T01:09:12;8.50;;;5.03;;
36931;SDS011;22847;42.654;23.370;2024-03-08T01:11:38;9.27;;;5.07;;
36931;SDS011;22847;42.654;23.370;2024-03-08T01:14:04;10.93;;;5.22;;
36931;SDS011;22847;42.654;23.370;2024-03-08T01:16:29;8.80;;;4.88;;
36931;SDS011;22847;42.654;23.370;2024-03-08T01:18:55;7.90;;;4.95;;
36931;SDS011;22847;42.654;23.370;2024-03-08T01:21:20;8.73;;;4.15;;
36931;SDS011;22847;42.654;23.370;2024-03-08T01:23:45;6.50;;;3.78;;
36931;SDS011;22847;42.654;23.370;2024-03-08T01:26:12;6.32;;;3.88;;
36931;SDS011;22847;42.654;23.370;2024-03-08T01:28:37;5.30;;;3.47;;
36931;SDS011;22847;42.654;23.370;2024-03-08T01:31:03;4.95;;;3.10;;
36931;SDS011;22847;42.654;23.370;2024-03-08T01:33:30;3.83;;;2.55;;
36931;SDS011;22847;42.654;23.370;2024-03-08T01:35:57;5.25;;;3.15;;
36931;SDS011;22847;42.654;23.370;2024-03-08T01:38:23;4.40;;;2.70;;
36931;SDS011;22847;42.654;23.370;2024-03-08T01:40:48;3.78;;;2.67;;
36931;SDS011;22847;42.654;23.370;2024-03-08T01:43:35;3.70;;;2.33;;
36931;SDS011;22847;42.654;23.370;2024-03-08T01:46:00;5.57;;;2.70;;
36931;SDS011;22847;42.654;23.370;2024-03-08T01:48:30;3.55;;;2.53;;
36931;SDS011;22847;42.654;23.370;2024-03-08T01:50:56;4.25;;;2.70;;
36931;SDS011;22847;42.654;23.370;2024-03-08T01:53:23;5.43;;;3.15;;
36931;SDS011;22847;42.654;23.370;2024-03-08T01:55:49;5.68;;;3.25;;
36931;SDS011;22847;42.654;23.370;2024-03-08T01:58:19;4.18;;;2.85;;
36931;SDS011;22847;42.654;23.370;2024-03-08T02:00:47;4.07;;;2.83;;
36931;SDS011;22847;42.654;23.370;2024-03-08T02:03:16;4.30;;;2.95;;
36931;SDS011;22847;42.654;23.370;2024-03-08T02:05:42;4.25;;;3.10;;
36931;SDS011;22847;42.654;23.370;2024-03-08T02:08:08;4.10;;;2.60;;
36931;SDS011;22847;42.654;23.370;2024-03-08T02:10:39;5.72;;;2.85;;
36931;SDS011;22847;42.654;23.370;2024-03-08T02:13:06;4.60;;;2.75;;
36931;SDS011;22847;42.654;23.370;2024-03-08T02:18:24;7.10;;;2.40;;
36931;SDS011;22847;42.654;23.370;2024-03-08T02:20:53;4.35;;;2.53;;
36931;SDS011;22847;42.654;23.370;2024-03-08T02:23:23;3.90;;;2.38;;
36931;SDS011;22847;42.654;23.370;2024-03-08T02:25:52;3.20;;;2.33;;
36931;SDS011;22847;42.654;23.370;2024-03-08T02:28:19;2.83;;;2.10;;
36931;SDS011;22847;42.654;23.370;2024-03-08T02:30:46;3.10;;;2.25;;
36931;SDS011;22847;42.654;23.370;2024-03-08T02:33:13;3.75;;;2.30;;
36931;SDS011;22847;42.654;23.370;2024-03-08T02:35:44;3.35;;;2.30;;
36931;SDS011;22847;42.654;23.370;2024-03-08T02:38:18;3.17;;;2.33;;
36931;SDS011;22847;42.654;23.370;2024-03-08T02:40:45;3.55;;;2.53;;
36931;SDS011;22847;42.654;23.370;2024-03-08T02:43:12;4.00;;;2.70;;
36931;SDS011;22847;42.654;23.370;2024-03-08T02:45:39;3.33;;;2.50;;
36931;SDS011;22847;42.654;23.370;2024-03-08T02:48:06;4.65;;;2.58;;
36931;SDS011;22847;42.654;23.370;2024-03-08T02:50:33;3.05;;;2.28;;
36931;SDS011;22847;42.654;23.370;2024-03-08T02:53:00;2.55;;;2.00;;
36931;SDS011;22847;42.654;23.370;2024-03-08T02:55:26;4.20;;;2.35;;
36931;SDS011;22847;42.654;23.370;2024-03-08T02:57:52;3.58;;;2.22;;
36931;SDS011;22847;42.654;23.370;2024-03-08T03:00:19;2.28;;;1.70;;
36931;SDS011;22847;42.654;23.370;2024-03-08T03:02:48;3.40;;;1.98;;
36931;SDS011;22847;42.654;23.370;2024-03-08T03:05:19;2.55;;;2.00;;
36931;SDS011;22847;42.654;23.370;2024-03-08T03:07:48;4.00;;;2.08;;
36931;SDS011;22847;42.654;23.370;2024-03-08T03:10:14;3.28;;;2.03;;
36931;SDS011;22847;42.654;23.370;2024-03-08T03:12:43;2.80;;;2.10;;
36931;SDS011;22847;42.654;23.370;2024-03-08T03:15:10;1.80;;;1.55;;
36931;SDS011;22847;42.654;23.370;2024-03-08T03:17:36;2.30;;;1.50;;
36931;SDS011;22847;42.654;23.370;2024-03-08T03:20:02;3.00;;;1.70;;
36931;SDS011;22847;42.654;23.370;2024-03-08T03:22:34;4.43;;;1.50;;
36931;SDS011;22847;42.654;23.370;2024-03-08T03:25:02;1.70;;;1.30;;
36931;SDS011;22847;42.654;23.370;2024-03-08T03:27:29;1.30;;;1.20;;
36931;SDS011;22847;42.654;23.370;2024-03-08T03:29:55;1.40;;;1.30;;
36931;SDS011;22847;42.654;23.370;2024-03-08T03:32:22;1.52;;;1.20;;
36931;SDS011;22847;42.654;23.370;2024-03-08T03:34:48;2.40;;;1.40;;
36931;SDS011;22847;42.654;23.370;2024-03-08T03:37:18;1.38;;;1.27;;
36931;SDS011;22847;42.654;23.370;2024-03-08T03:39:45;1.38;;;1.25;;
36931;SDS011;22847;42.654;23.370;2024-03-08T03:42:18;1.50;;;1.02;;
36931;SDS011;22847;42.654;23.370;2024-03-08T03:44:47;1.42;;;1.00;;
36931;SDS011;22847;42.654;23.370;2024-03-08T03:47:14;1.70;;;1.20;;
36931;SDS011;22847;42.654;23.370;2024-03-08T03:49:40;2.03;;;1.48;;
36931;SDS011;22847;42.654;23.370;2024-03-08T03:52:06;2.72;;;1.27;;
36931;SDS011;22847;42.654;23.370;2024-03-08T03:54:32;4.13;;;1.40;;
36931;SDS011;22847;42.654;23.370;2024-03-08T03:56:58;1.98;;;1.40;;
36931;SDS011;22847;42.654;23.370;2024-03-08T03:59:25;2.55;;;1.63;;
36931;SDS011;22847;42.654;23.370;2024-03-08T04:01:51;1.20;;;1.00;;
36931;SDS011;22847;42.654;23.370;2024-03-08T04:04:16;1.08;;;0.98;;
36931;SDS011;22847;42.654;23.370;2024-03-08T04:06:42;4.18;;;1.10;;
36931;SDS011;22847;42.654;23.370;2024-03-08T04:09:09;1.63;;;1.02;;
36931;SDS011;22847;42.654;23.370;2024-03-08T04:11:34;1.20;;;1.00;;
36931;SDS011;22847;42.654;23.370;2024-03-08T04:14:00;2.67;;;1.20;;
36931;SDS011;22847;42.654;23.370;2024-03-08T04:16:25;2.08;;;1.33;;
36931;SDS011;22847;42.654;23.370;2024-03-08T04:18:51;1.98;;;1.50;;
36931;SDS011;22847;42.654;23.370;2024-03-08T04:21:17;2.60;;;1.40;;
36931;SDS011;22847;42.654;23.370;2024-03-08T04:23:44;2.42;;;1.50;;
36931;SDS011;22847;42.654;23.370;2024-03-08T04:26:10;2.63;;;1.75;;
36931;SDS011;22847;42.654;23.370;2024-03-08T04:28:36;5.63;;;1.63;;
36931;SDS011;22847;42.654;23.370;2024-03-08T04:31:03;1.80;;;1.52;;
36931;SDS011;22847;42.654;23.370;2024-03-08T04:33:29;1.95;;;1.35;;
36931;SDS011;22847;42.654;23.370;2024-03-08T04:35:54;1.50;;;1.38;;
36931;SDS011;22847;42.654;23.370;2024-03-08T04:38:20;4.45;;;1.40;;
36931;SDS011;22847;42.654;23.370;2024-03-08T04:40:46;2.40;;;1.70;;
36931;SDS011;22847;42.654;23.370;2024-03-08T04:43:12;2.38;;;1.48;;
36931;SDS011;22847;42.654;23.370;2024-03-08T04:45:37;4.32;;;2.00;;
36931;SDS011;22847;42.654;23.370;2024-03-08T04:48:04;4.28;;;1.88;;
36931;SDS011;22847;42.654;23.370;2024-03-08T04:50:30;3.55;;;1.70;;
36931;SDS011;22847;42.654;23.370;2024-03-08T04:52:55;2.13;;;1.67;;
36931;SDS011;22847;42.654;23.370;2024-03-08T04:55:21;2.00;;;1.50;;
36931;SDS011;22847;42.654;23.370;2024-03-08T04:57:49;2.63;;;1.75;;
36931;SDS011;22847;42.654;23.370;2024-03-08T05:00:15;2.33;;;1.80;;
36931;SDS011;22847;42.654;23.370;2024-03-08T05:02:41;4.28;;;1.88;;
36931;SDS011;22847;42.654;23.370;2024-03-08T05:05:07;4.50;;;2.70;;
36931;SDS011;22847;42.654;23.370;2024-03-08T05:07:37;3.05;;;2.15;;
36931;SDS011;22847;42.654;23.370;2024-03-08T05:10:04;2.90;;;1.90;;
36931;SDS011;22847;42.654;23.370;2024-03-08T05:12:31;2.30;;;1.60;;
36931;SDS011;22847;42.654;23.370;2024-03-08T05:14:57;4.78;;;2.03;;
36931;SDS011;22847;42.654;23.370;2024-03-08T05:17:23;2.50;;;1.50;;
36931;SDS011;22847;42.654;23.370;2024-03-08T05:19:49;1.60;;;1.50;;
36931;SDS011;22847;42.654;23.370;2024-03-08T05:22:16;2.45;;;1.80;;
36931;SDS011;22847;42.654;23.370;2024-03-08T05:24:42;4.35;;;2.60;;
36931;SDS011;22847;42.654;23.370;2024-03-08T05:27:08;2.78;;;2.13;;
36931;SDS011;22847;42.654;23.370;2024-03-08T05:29:33;3.38;;;2.30;;
36931;SDS011;22847;42.654;23.370;2024-03-08T05:31:59;4.95;;;2.08;;
36931;SDS011;22847;42.654;23.370;2024-03-08T05:34:24;6.05;;;3.17;;
36931;SDS011;22847;42.654;23.370;2024-03-08T05:36:51;3.10;;;2.50;;
36931;SDS011;22847;42.654;23.370;2024-03-08T05:39:17;5.93;;;2.90;;
36931;SDS011;22847;42.654;23.370;2024-03-08T05:41:43;4.82;;;3.30;;
36931;SDS011;22847;42.654;23.370;2024-03-08T05:44:09;11.07;;;5.03;;
36931;SDS011;22847;42.654;23.370;2024-03-08T05:46:36;10.75;;;5.03;;
36931;SDS011;22847;42.654;23.370;2024-03-08T05:49:05;7.93;;;4.00;;
36931;SDS011;22847;42.654;23.370;2024-03-08T05:51:32;7.80;;;4.38;;
36931;SDS011;22847;42.654;23.370;2024-03-08T05:54:01;7.82;;;4.82;;
36931;SDS011;22847;42.654;23.370;2024-03-08T05:56:28;10.85;;;5.60;;
36931;SDS011;22847;42.654;23.370;2024-03-08T05:58:54;13.82;;;5.53;;
36931;SDS011;22847;42.654;23.370;2024-03-08T06:01:19;10.18;;;5.60;;
36931;SDS011;22847;42.654;23.370;2024-03-08T06:03:45;9.55;;;5.80;;
36931;SDS011;22847;42.654;23.370;2024-03-08T06:06:12;12.40;;;5.80;;
36931;SDS011;22847;42.654;23.370;2024-03-08T06:08:38;10.40;;;6.45;;
36931;SDS011;22847;42.654;23.370;2024-03-08T06:11:04;12.23;;;6.57;;
36931;SDS011;22847;42.654;23.370;2024-03-08T06:13:30;10.60;;;6.30;;
36931;SDS011;22847;42.654;23.370;2024-03-08T06:15:56;11.13;;;6.55;;
36931;SDS011;22847;42.654;23.370;2024-03-08T06:18:22;12.88;;;6.75;;
36931;SDS011;22847;42.654;23.370;2024-03-08T06:20:48;13.05;;;6.57;;
36931;SDS011;22847;42.654;23.370;2024-03-08T06:23:13;23.30;;;10.85;;
36931;SDS011;22847;42.654;23.370;2024-03-08T06:25:43;15.82;;;6.80;;
36931;SDS011;22847;42.654;23.370;2024-03-08T06:28:11;13.68;;;6.88;;
36931;SDS011;22847;42.654;23.370;2024-03-08T06:30:36;13.65;;;7.03;;
36931;SDS011;22847;42.654;23.370;2024-03-08T06:33:02;14.32;;;6.70;;
36931;SDS011;22847;42.654;23.370;2024-03-08T06:35:28;16.70;;;7.15;;
36931;SDS011;22847;42.654;23.370;2024-03-08T06:37:53;14.48;;;6.70;;
36931;SDS011;22847;42.654;23.370;2024-03-08T06:40:19;12.85;;;6.55;;
36931;SDS011;22847;42.654;23.370;2024-03-08T06:42:44;12.75;;;6.47;;
36931;SDS011;22847;42.654;23.370;2024-03-08T06:45:10;11.18;;;6.65;;
36931;SDS011;22847;42.654;23.370;2024-03-08T06:47:37;12.93;;;6.45;;
36931;SDS011;22847;42.654;23.370;2024-03-08T06:50:03;14.80;;;7.75;;
36931;SDS011;22847;42.654;23.370;2024-03-08T06:52:29;12.20;;;7.47;;
36931;SDS011;22847;42.654;23.370;2024-03-08T06:54:54;13.70;;;7.25;;
36931;SDS011;22847;42.654;23.370;2024-03-08T06:57:22;11.73;;;6.88;;
36931;SDS011;22847;42.654;23.370;2024-03-08T06:59:48;13.70;;;7.35;;
36931;SDS011;22847;42.654;23.370;2024-03-08T07:02:14;10.75;;;6.32;;
36931;SDS011;22847;42.654;23.370;2024-03-08T07:04:39;14.65;;;7.50;;
36931;SDS011;22847;42.654;23.370;2024-03-08T07:07:05;13.63;;;7.30;;
36931;SDS011;22847;42.654;23.370;2024-03-08T07:09:33;10.98;;;6.30;;
36931;SDS011;22847;42.654;23.370;2024-03-08T07:11:58;11.63;;;7.15;;
36931;SDS011;22847;42.654;23.370;2024-03-08T07:14:24;16.52;;;7.38;;
36931;SDS011;22847;42.654;23.370;2024-03-08T07:16:50;14.65;;;8.77;;
36931;SDS011;22847;42.654;23.370;2024-03-08T07:19:16;12.25;;;7.40;;
36931;SDS011;22847;42.654;23.370;2024-03-08T07:21:42;14.23;;;8.07;;
36931;SDS011;22847;42.654;23.370;2024-03-08T07:24:09;9.57;;;5.97;;
36931;SDS011;22847;42.654;23.370;2024-03-08T07:26:53;14.95;;;9.13;;
36931;SDS011;22847;42.654;23.370;2024-03-08T07:29:20;11.90;;;6.90;;
36931;SDS011;22847;42.654;23.370;2024-03-08T07:31:46;6.15;;;4.38;;
36931;SDS011;22847;42.654;23.370;2024-03-08T07:34:35;9.32;;;5.90;;
36931;SDS011;22847;42.654;23.370;2024-03-08T07:37:00;6.65;;;4.53;;
36931;SDS011;22847;42.654;23.370;2024-03-08T07:39:26;6.38;;;4.38;;
36931;SDS011;22847;42.654;23.370;2024-03-08T07:41:51;6.40;;;4.43;;
36931;SDS011;22847;42.654;23.370;2024-03-08T07:44:20;8.52;;;4.35;;
36931;SDS011;22847;42.654;23.370;2024-03-08T07:46:45;11.77;;;4.15;;
36931;SDS011;22847;42.654;23.370;2024-03-08T07:49:11;9.77;;;4.50;;
36931;SDS011;22847;42.654;23.370;2024-03-08T07:51:37;9.60;;;5.68;;
36931;SDS011;22847;42.654;23.370;2024-03-08T07:54:03;8.23;;;5.20;;
36931;SDS011;22847;42.654;23.370;2024-03-08T07:56:34;7.60;;;5.15;;
36931;SDS011;22847;42.654;23.370;2024-03-08T07:59:01;12.70;;;6.20;;
36931;SDS011;22847;42.654;23.370;2024-03-08T08:01:29;12.77;;;6.40;;
36931;SDS011;22847;42.654;23.370;2024-03-08T08:03:55;15.65;;;9.88;;
36931;SDS011;22847;42.654;23.370;2024-03-08T08:06:21;10.82;;;6.47;;
36931;SDS011;22847;42.654;23.370;2024-03-08T08:08:47;14.77;;;9.50;;
36931;SDS011;22847;42.654;23.370;2024-03-08T08:11:13;12.48;;;7.78;;
36931;SDS011;22847;42.654;23.370;2024-03-08T08:13:40;10.05;;;5.45;;
36931;SDS011;22847;42.654;23.370;2024-03-08T08:16:08;8.65;;;5.60;;
36931;SDS011;22847;42.654;23.370;2024-03-08T08:18:35;8.25;;;5.10;;
36931;SDS011;22847;42.654;23.370;2024-03-08T08:21:01;17.10;;;7.72;;
36931;SDS011;22847;42.654;23.370;2024-03-08T08:23:27;9.50;;;4.90;;
36931;SDS011;22847;42.654;23.370;2024-03-08T08:25:54;7.35;;;4.10;;
36931;SDS011;22847;42.654;23.370;2024-03-08T08:28:20;7.05;;;4.50;;
36931;SDS011;22847;42.654;23.370;2024-03-08T08:30:46;8.10;;;4.97;;
36931;SDS011;22847;42.654;23.370;2024-03-08T08:33:11;8.77;;;4.38;;
36931;SDS011;22847;42.654;23.370;2024-03-08T08:35:37;5.90;;;3.97;;
36931;SDS011;22847;42.654;23.370;2024-03-08T08:38:03;6.63;;;4.20;;
36931;SDS011;22847;42.654;23.370;2024-03-08T08:40:29;10.88;;;5.10;;
36931;SDS011;22847;42.654;23.370;2024-03-08T08:42:58;10.85;;;5.13;;
36931;SDS011;22847;42.654;23.370;2024-03-08T08:45:23;7.10;;;4.20;;
36931;SDS011;22847;42.654;23.370;2024-03-08T08:47:49;5.47;;;4.25;;
36931;SDS011;22847;42.654;23.370;2024-03-08T08:50:15;7.25;;;3.65;;
36931;SDS011;22847;42.654;23.370;2024-03-08T08:52:41;8.18;;;4.18;;
36931;SDS011;22847;42.654;23.370;2024-03-08T08:55:10;6.70;;;4.40;;
36931;SDS011;22847;42.654;23.370;2024-03-08T08:57:39;6.57;;;4.40;;
36931;SDS011;22847;42.654;23.370;2024-03-08T09:00:09;8.20;;;3.85;;
36931;SDS011;22847;42.654;23.370;2024-03-08T09:02:39;9.00;;;4.35;;
36931;SDS011;22847;42.654;23.370;2024-03-08T09:05:06;7.22;;;4.75;;
36931;SDS011;22847;42.654;23.370;2024-03-08T09:07:33;7.13;;;3.63;;
36931;SDS011;22847;42.654;23.370;2024-03-08T09:09:59;9.27;;;4.32;;
36931;SDS011;22847;42.654;23.370;2024-03-08T09:12:25;5.97;;;3.40;;
36931;SDS011;22847;42.654;23.370;2024-03-08T09:14:51;10.82;;;4.53;;
36931;SDS011;22847;42.654;23.370;2024-03-08T09:17:16;7.05;;;3.70;;
36931;SDS011;22847;42.654;23.370;2024-03-08T09:19:45;7.05;;;3.47;;
36931;SDS011;22847;42.654;23.370;2024-03-08T09:22:13;6.78;;;3.53;;
36931;SDS011;22847;42.654;23.370;2024-03-08T09:24:39;3.90;;;2.90;;
36931;SDS011;22847;42.654;23.370;2024-03-08T09:27:05;7.95;;;3.53;;
36931;SDS011;22847;42.654;23.370;2024-03-08T09:29:31;5.72;;;3.33;;
36931;SDS011;22847;42.654;23.370;2024-03-08T09:31:56;5.93;;;2.50;;
36931;SDS011;22847;42.654;23.370;2024-03-08T09:34:22;4.65;;;2.20;;
36931;SDS011;22847;42.654;23.370;2024-03-08T09:36:48;7.68;;;2.90;;
36931;SDS011;22847;42.654;23.370;2024-03-08T09:39:15;5.78;;;3.20;;
36931;SDS011;22847;42.654;23.370;2024-03-08T09:41:44;5.30;;;2.95;;
36931;SDS011;22847;42.654;23.370;2024-03-08T09:44:13;5.80;;;3.25;;
36931;SDS011;22847;42.654;23.370;2024-03-08T09:46:39;6.20;;;3.00;;
36931;SDS011;22847;42.654;23.370;2024-03-08T09:49:06;4.25;;;2.53;;
36931;SDS011;22847;42.654;23.370;2024-03-08T09:51:33;6.00;;;2.90;;
36931;SDS011;22847;42.654;23.370;2024-03-08T09:54:00;8.82;;;2.83;;
36931;SDS011;22847;42.654;23.370;2024-03-08T09:56:29;4.93;;;2.53;;
36931;SDS011;22847;42.654;23.370;2024-03-08T09:58:59;6.28;;;3.25;;
36931;SDS011;22847;42.654;23.370;2024-03-08T10:01:36;6.32;;;2.90;;
36931;SDS011;22847;42.654;23.370;2024-03-08T10:04:03;9.98;;;3.88;;
36931;SDS011;22847;42.654;23.370;2024-03-08T10:06:29;5.97;;;3.83;;
36931;SDS011;22847;42.654;23.370;2024-03-08T10:08:56;5.82;;;3.20;;
36931;SDS011;22847;42.654;23.370;2024-03-08T10:11:22;4.30;;;2.50;;
36931;SDS011;22847;42.654;23.370;2024-03-08T10:13:48;3.90;;;2.30;;
36931;SDS011;22847;42.654;23.370;2024-03-08T10:16:15;4.57;;;2.75;;
36931;SDS011;22847;42.654;23.370;2024-03-08T10:18:42;4.63;;;2.58;;
36931;SDS011;22847;42.654;23.370;2024-03-08T10:21:11;4.50;;;2.60;;
36931;SDS011;22847;42.654;23.370;2024-03-08T10:23:36;7.13;;;2.50;;
36931;SDS011;22847;42.654;23.370;2024-03-08T10:26:09;3.72;;;2.60;;
36931;SDS011;22847;42.654;23.370;2024-03-08T10:28:47;5.20;;;2.90;;
36931;SDS011;22847;42.654;23.370;2024-03-08T10:31:14;4.60;;;2.50;;
36931;SDS011;22847;42.654;23.370;2024-03-08T10:33:43;3.58;;;2.72;;
36931;SDS011;22847;42.654;23.370;2024-03-08T10:36:09;8.02;;;2.35;;
36931;SDS011;22847;42.654;23.370;2024-03-08T10:38:37;3.45;;;2.38;;
36931;SDS011;22847;42.654;23.370;2024-03-08T10:41:07;5.18;;;2.20;;
36931;SDS011;22847;42.654;23.370;2024-03-08T10:49:18;3.40;;;2.10;;
36931;SDS011;22847;42.654;23.370;2024-03-08T10:51:50;3.65;;;2.58;;
36931;SDS011;22847;42.654;23.370;2024-03-08T10:54:17;4.47;;;2.08;;
36931;SDS011;22847;42.654;23.370;2024-03-08T10:56:44;2.97;;;2.10;;
36931;SDS011;22847;42.654;23.370;2024-03-08T10:59:13;5.25;;;2.17;;
36931;SDS011;22847;42.654;23.370;2024-03-08T11:01:40;3.13;;;2.03;;
36931;SDS011;22847;42.654;23.370;2024-03-08T11:04:05;4.10;;;2.10;;
36931;SDS011;22847;42.654;23.370;2024-03-08T11:09:03;3.72;;;2.15;;
36931;SDS011;22847;42.654;23.370;2024-03-08T11:11:38;3.25;;;1.80;;
36931;SDS011;22847;42.654;23.370;2024-03-08T11:14:07;4.25;;;2.10;;
36931;SDS011;22847;42.654;23.370;2024-03-08T11:17:08;5.43;;;1.92;;
36931;SDS011;22847;42.654;23.370;2024-03-08T11:19:34;4.07;;;2.17;;
36931;SDS011;22847;42.654;23.370;2024-03-08T11:22:00;3.83;;;2.00;;
36931;SDS011;22847;42.654;23.370;2024-03-08T11:24:28;3.03;;;2.17;;
36931;SDS011;22847;42.654;23.370;2024-03-08T11:27:03;3.00;;;2.30;;
36931;SDS011;22847;42.654;23.370;2024-03-08T11:34:36;4.53;;;2.38;;
36931;SDS011;22847;42.654;23.370;2024-03-08T11:37:06;6.20;;;3.20;;
36931;SDS011;22847;42.654;23.370;2024-03-08T11:39:38;6.20;;;3.75;;
36931;SDS011;22847;42.654;23.370;2024-03-08T11:42:05;2.78;;;1.80;;
36931;SDS011;22847;42.654;23.370;2024-03-08T11:44:30;4.88;;;3.00;;
36931;SDS011;22847;42.654;23.370;2024-03-08T11:46:56;2.85;;;1.90;;
36931;SDS011;22847;42.654;23.370;2024-03-08T11:49:22;1.92;;;1.52;;
36931;SDS011;22847;42.654;23.370;2024-03-08T11:51:51;2.95;;;2.00;;
36931;SDS011;22847;42.654;23.370;2024-03-08T11:54:18;5.13;;;1.52;;
36931;SDS011;22847;42.654;23.370;2024-03-08T11:56:44;3.00;;;1.83;;
36931;SDS011;22847;42.654;23.370;2024-03-08T11:59:12;9.63;;;1.98;;
36931;SDS011;22847;42.654;23.370;2024-03-08T12:01:38;4.07;;;2.65;;
36931;SDS011;22847;42.654;23.370;2024-03-08T12:04:04;7.07;;;3.55;;
36931;SDS011;22847;42.654;23.370;2024-03-08T12:06:38;6.57;;;3.40;;
36931;SDS011;22847;42.654;23.370;2024-03-08T12:09:07;3.30;;;2.58;;
36931;SDS011;22847;42.654;23.370;2024-03-08T12:11:34;3.45;;;2.53;;
36931;SDS011;22847;42.654;23.370;2024-03-08T12:14:01;3.47;;;2.55;;
36931;SDS011;22847;42.654;23.370;2024-03-08T12:16:27;7.18;;;3.25;;
36931;SDS011;22847;42.654;23.370;2024-03-08T12:18:52;8.82;;;2.40;;
36931;SDS011;22847;42.654;23.370;2024-03-08T12:21:19;4.15;;;2.60;;
36931;SDS011;22847;42.654;23.370;2024-03-08T12:24:06;6.25;;;1.65;;
36931;SDS011;22847;42.654;23.370;2024-03-08T12:26:37;3.42;;;1.70;;
36931;SDS011;22847;42.654;23.370;2024-03-08T12:29:19;2.03;;;1.60;;
36931;SDS011;22847;42.654;23.370;2024-03-08T12:31:53;4.07;;;1.80;;
36931;SDS011;22847;42.654;23.370;2024-03-08T12:34:20;2.92;;;2.00;;
36931;SDS011;22847;42.654;23.370;2024-03-08T12:36:47;3.47;;;1.85;;
36931;SDS011;22847;42.654;23.370;2024-03-08T12:39:16;3.95;;;2.60;;
36931;SDS011;22847;42.654;23.370;2024-03-08T12:41:45;6.30;;;3.45;;
36931;SDS011;22847;42.654;23.370;2024-03-08T12:44:11;7.05;;;4.85;;
36931;SDS011;22847;42.654;23.370;2024-03-08T12:46:37;4.03;;;2.03;;
36931;SDS011;22847;42.654;23.370;2024-03-08T12:49:09;4.47;;;1.88;;
36931;SDS011;22847;42.654;23.370;2024-03-08T12:51:35;5.85;;;4.07;;
36931;SDS011;22847;42.654;23.370;2024-03-08T12:54:01;5.30;;;2.80;;
36931;SDS011;22847;42.654;23.370;2024-03-08T12:56:30;3.30;;;2.30;;
36931;SDS011;22847;42.654;23.370;2024-03-08T12:58:58;4.18;;;2.53;;
36931;SDS011;22847;42.654;23.370;2024-03-08T13:01:23;2.50;;;2.03;;
36931;SDS011;22847;42.654;23.370;2024-03-08T13:03:49;3.53;;;2.03;;
36931;SDS011;22847;42.654;23.370;2024-03-08T13:06:14;7.97;;;2.30;;
36931;SDS011;22847;42.654;23.370;2024-03-08T13:08:40;4.53;;;1.80;;
36931;SDS011;22847;42.654;23.370;2024-03-08T13:11:09;5.88;;;1.92;;
36931;SDS011;22847;42.654;23.370;2024-03-08T13:13:42;2.47;;;1.77;;
36931;SDS011;22847;42.654;23.370;2024-03-08T13:16:09;3.10;;;2.05;;
36931;SDS011;22847;42.654;23.370;2024-03-08T13:18:38;3.92;;;2.28;;
36931;SDS011;22847;42.654;23.370;2024-03-08T13:21:04;3.88;;;2.30;;
36931;SDS011;22847;42.654;23.370;2024-03-08T13:23:35;4.15;;;1.95;;
36931;SDS011;22847;42.654;23.370;2024-03-08T13:26:05;3.33;;;1.70;;
36931;SDS011;22847;42.654;23.370;2024-03-08T13:28:32;4.35;;;2.22;;
36931;SDS011;22847;42.654;23.370;2024-03-08T13:31:02;3.33;;;2.10;;
36931;SDS011;22847;42.654;23.370;2024-03-08T13:33:31;4.15;;;2.05;;
36931;SDS011;22847;42.654;23.370;2024-03-08T13:36:00;5.70;;;3.70;;
36931;SDS011;22847;42.654;23.370;2024-03-08T13:38:27;4.72;;;3.90;;
36931;SDS011;22847;42.654;23.370;2024-03-08T13:40:52;8.32;;;5.75;;
36931;SDS011;22847;42.654;23.370;2024-03-08T13:43:18;4.90;;;2.35;;
36931;SDS011;22847;42.654;23.370;2024-03-08T13:45:44;7.10;;;4.90;;
36931;SDS011;22847;42.654;23.370;2024-03-08T13:48:10;6.90;;;4.78;;
36931;SDS011;22847;42.654;23.370;2024-03-08T13:50:38;7.15;;;3.65;;
36931;SDS011;22847;42.654;23.370;2024-03-08T13:53:04;3.22;;;1.80;;
36931;SDS011;22847;42.654;23.370;2024-03-08T13:55:30;3.20;;;1.83;;
36931;SDS011;22847;42.654;23.370;2024-03-08T13:57:56;4.00;;;2.47;;
36931;SDS011;22847;42.654;23.370;2024-03-08T14:00:22;6.13;;;2.45;;
36931;SDS011;22847;42.654;23.370;2024-03-08T14:02:49;6.45;;;2.50;;
36931;SDS011;22847;42.654;23.370;2024-03-08T14:05:15;3.20;;;2.08;;
36931;SDS011;22847;42.654;23.370;2024-03-08T14:07:41;4.72;;;2.30;;
36931;SDS011;22847;42.654;23.370;2024-03-08T14:10:07;2.95;;;1.80;;
36931;SDS011;22847;42.654;23.370;2024-03-08T14:12:35;2.83;;;1.92;;
36931;SDS011;22847;42.654;23.370;2024-03-08T14:15:01;3.22;;;2.03;;
36931;SDS011;22847;42.654;23.370;2024-03-08T14:17:26;2.30;;;2.00;;
36931;SDS011;22847;42.654;23.370;2024-03-08T14:19:53;6.20;;;2.70;;
36931;SDS011;22847;42.654;23.370;2024-03-08T14:22:19;5.00;;;2.50;;
36931;SDS011;22847;42.654;23.370;2024-03-08T14:24:45;5.72;;;3.08;;
36931;SDS011;22847;42.654;23.370;2024-03-08T14:27:11;4.10;;;2.67;;
36931;SDS011;22847;42.654;23.370;2024-03-08T14:29:37;3.38;;;2.13;;
36931;SDS011;22847;42.654;23.370;2024-03-08T14:32:04;6.60;;;2.70;;
36931;SDS011;22847;42.654;23.370;2024-03-08T14:34:31;6.28;;;3.08;;
36931;SDS011;22847;42.654;23.370;2024-03-08T14:37:00;9.02;;;2.80;;
36931;SDS011;22847;42.654;23.370;2024-03-08T14:39:26;3.45;;;2.50;;
36931;SDS011;22847;42.654;23.370;2024-03-08T14:41:54;3.53;;;2.53;;
36931;SDS011;22847;42.654;23.370;2024-03-08T14:44:20;3.50;;;2.30;;
36931;SDS011;22847;42.654;23.370;2024-03-08T14:46:54;3.75;;;1.98;;